Time;durP1;ratioP1;P1;durP2;ratioP2;P2;SDS_P1;SDS_P2;PMS_P1;PMS_P2;Temp;Humidity;BMP_temperature;BMP_pressure;BME280_temperature;BME280_humidity;BME280_pressure;Samples;Min_cycle;Max_cycle;Signal;HPM_P1;HPM_P2
2022/09/09 00:00:18;;;;;;;2.72;2.00;;;;;;;13.42;100.00;100607.38;4985136;30;20039;-70
2022/09/09 00:03:27;;;;;;;4.50;2.33;;;;;;;13.42;100.00;100606.53;4986339;29;20050;-69
2022/09/09 00:06:11;;;;;;;3.85;2.22;;;;;;;13.35;100.00;100608.47;4987124;30;20403;-68
2022/09/09 00:09:16;;;;;;;3.85;2.20;;;;;;;13.34;100.00;100606.72;4987291;30;20033;-69
2022/09/09 00:12:09;;;;;;;3.60;2.30;;;;;;;13.23;100.00;100600.88;4987311;30;20396;-70
2022/09/09 00:14:54;;;;;;;4.47;2.15;;;;;;;13.24;100.00;100607.84;4986821;30;20117;-70
2022/09/09 00:17:41;;;;;;;6.70;2.15;;;;;;;13.23;100.00;100600.88;4986985;30;20079;-68
2022/09/09 00:20:31;;;;;;;5.65;2.03;;;;;;;13.22;100.00;100599.19;4986896;30;20043;-69
2022/09/09 00:23:14;;;;;;;4.88;2.05;;;;;;;13.30;100.00;100597.22;4987515;30;20058;-70
2022/09/09 00:26:00;;;;;;;5.60;2.47;;;;;;;13.19;100.00;100597.50;4986927;30;20039;-70
2022/09/09 00:28:39;;;;;;;4.90;2.33;;;;;;;13.18;100.00;100598.38;4986931;30;20463;-70
2022/09/09 00:31:15;;;;;;;4.80;2.40;;;;;;;13.27;100.00;100594.69;4986803;30;20052;-68
2022/09/09 00:33:49;;;;;;;3.58;2.30;;;;;;;13.09;100.00;100596.88;4986727;30;20373;-68
2022/09/09 00:36:28;;;;;;;5.78;2.25;;;;;;;13.09;100.00;100596.03;4984285;30;20031;-69
2022/09/09 00:39:02;;;;;;;4.55;2.38;;;;;;;13.24;100.00;100587.75;4986398;30;20094;-69
2022/09/09 00:41:42;;;;;;;5.95;1.90;;;;;;;13.17;100.00;100588.84;4984241;30;20235;-68
2022/09/09 00:44:35;;;;;;;5.03;2.47;;;;;;;13.20;100.00;100580.91;4986403;30;20047;-68
2022/09/09 00:47:15;;;;;;;3.97;2.17;;;;;;;13.23;100.00;100574.72;4985658;30;20035;-69
2022/09/09 00:50:03;;;;;;;4.55;2.30;;;;;;;13.27;100.00;100571.13;4986821;30;20386;-69
2022/09/09 00:52:46;;;;;;;6.20;3.05;;;;;;;13.18;100.00;100572.22;4986311;30;20043;-69
2022/09/09 00:55:40;;;;;;;3.80;2.10;;;;;;;13.19;100.00;100573.94;4986691;30;20114;-69
2022/09/09 00:58:12;;;;;;;3.80;2.25;;;;;;;13.11;100.00;100575.91;4986476;30;20112;-69
2022/09/09 01:00:44;;;;;;;4.97;2.00;;;;;;;13.06;100.00;100573.41;4986612;30;20181;-69
2022/09/09 01:03:24;;;;;;;3.70;1.80;;;;;;;13.14;100.00;100576.69;4986518;30;20069;-69
2022/09/09 01:06:23;;;;;;;6.10;1.92;;;;;;;13.03;100.00;100568.25;4986233;30;20040;-69
2022/09/09 01:09:23;;;;;;;3.90;2.03;;;;;;;13.00;100.00;100575.34;4969186;30;20084;-69
2022/09/09 01:12:17;;;;;;;4.05;2.20;;;;;;;13.02;100.00;100581.38;4961962;30;20492;-70
2022/09/09 01:14:53;;;;;;;6.53;2.22;;;;;;;13.01;100.00;100566.56;4985265;30;20483;-69
2022/09/09 01:17:38;;;;;;;4.57;2.25;;;;;;;13.08;100.00;100566.38;4986023;30;20028;-68
2022/09/09 01:20:35;;;;;;;4.25;2.28;;;;;;;13.10;100.00;100569.78;4970302;30;20028;-67
2022/09/09 01:23:09;;;;;;;5.32;2.08;;;;;;;13.08;100.00;100569.00;4953345;30;20047;-68
2022/09/09 01:25:44;;;;;;;5.25;2.30;;;;;;;13.02;100.00;100557.84;4971391;30;20039;-69
2022/09/09 01:28:22;;;;;;;4.90;2.40;;;;;;;12.98;100.00;100558.81;4972176;30;20031;-70
2022/09/09 01:30:56;;;;;;;5.57;2.70;;;;;;;12.98;100.00;100561.44;4986464;30;20031;-70
2022/09/09 01:33:27;;;;;;;4.13;2.40;;;;;;;13.06;100.00;100560.34;4970200;30;20068;-69
2022/09/09 01:36:04;;;;;;;8.40;2.90;;;;;;;12.98;100.00;100553.59;4985673;30;20480;-69
2022/09/09 01:38:37;;;;;;;5.97;2.67;;;;;;;13.06;100.00;100554.25;4985671;30;20145;-69
2022/09/09 01:41:08;;;;;;;6.72;3.03;;;;;;;13.02;100.00;100557.84;4985516;30;20067;-69
2022/09/09 01:43:40;;;;;;;7.37;2.90;;;;;;;12.99;100.00;100547.44;4969263;30;20075;-69
2022/09/09 01:46:13;;;;;;;6.53;3.17;;;;;;;12.97;100.00;100549.25;4985356;30;20100;-69
2022/09/09 01:48:45;;;;;;;8.10;2.90;;;;;;;12.94;100.00;100548.44;4984927;30;20039;-69
2022/09/09 01:51:17;;;;;;;5.72;2.92;;;;;;;12.93;100.00;100546.72;4985253;30;20242;-69
2022/09/09 01:53:48;;;;;;;5.73;3.07;;;;;;;12.95;100.00;100544.91;4969471;30;20118;-69
2022/09/09 01:56:46;;;;;;;5.50;2.93;;;;;;;12.89;100.00;100547.69;4985461;30;20059;-70
2022/09/09 01:59:36;;;;;;;8.57;3.38;;;;;;;12.91;100.00;100539.78;4985965;30;20031;-69
2022/09/09 02:02:18;;;;;;;5.50;3.03;;;;;;;12.89;100.00;100539.84;4986844;30;20043;-68
2022/09/09 02:04:56;;;;;;;6.82;3.10;;;;;;;12.91;100.00;100543.28;4989619;30;20059;-69
2022/09/09 02:07:43;;;;;;;5.60;3.22;;;;;;;12.86;100.00;100541.69;4988948;30;20035;-69
2022/09/09 02:10:21;;;;;;;8.05;3.42;;;;;;;12.85;100.00;100535.59;4986274;30;20043;-68
2022/09/09 02:13:01;;;;;;;11.40;3.95;;;;;;;12.82;100.00;100532.22;4985645;30;20046;-69
2022/09/09 02:15:47;;;;;;;6.63;3.65;;;;;;;12.84;100.00;100526.03;4985588;30;20063;-68
2022/09/09 02:18:28;;;;;;;7.05;3.08;;;;;;;12.81;100.00;100527.88;4985244;30;20023;-68
2022/09/09 02:21:02;;;;;;;8.75;3.85;;;;;;;12.85;100.00;100537.38;4985618;30;20047;-68
2022/09/09 02:23:35;;;;;;;5.18;3.13;;;;;;;12.81;100.00;100539.19;4985482;30;20583;-69
2022/09/09 02:26:08;;;;;;;5.57;3.40;;;;;;;12.82;100.00;100534.81;4971092;30;20471;-68
2022/09/09 02:28:42;;;;;;;7.03;3.33;;;;;;;12.79;100.00;100534.91;4972823;30;20036;-69
2022/09/09 02:31:17;;;;;;;5.85;3.50;;;;;;;12.83;100.00;100526.06;4988771;30;20448;-68
2022/09/09 02:33:55;;;;;;;9.27;3.80;;;;;;;12.80;100.00;100528.75;4988896;30;20031;-69
2022/09/09 02:36:33;;;;;;;9.82;3.35;;;;;;;12.78;100.00;100520.94;4988511;30;20035;-69
2022/09/09 02:39:07;;;;;;;11.68;3.72;;;;;;;12.73;100.00;100522.81;4972926;30;20035;-70
2022/09/09 02:41:41;;;;;;;8.02;3.20;;;;;;;12.79;100.00;100521.81;4972065;30;20087;-69
2022/09/09 02:44:17;;;;;;;8.80;3.22;;;;;;;12.76;100.00;100518.38;4987738;30;20176;-68
2022/09/09 02:47:05;;;;;;;11.02;3.70;;;;;;;12.82;100.00;100521.75;4988025;30;20035;-69
2022/09/09 02:50:13;;;;;;;9.35;3.65;;;;;;;12.72;100.00;100524.59;4987521;30;20043;-69
2022/09/09 02:52:52;;;;;;;9.48;3.80;;;;;;;12.74;100.00;100525.41;4988156;30;20456;-68
2022/09/09 02:55:29;;;;;;;10.55;4.05;;;;;;;12.77;100.00;100524.47;4987967;30;20059;-68
2022/09/09 02:58:05;;;;;;;10.98;4.13;;;;;;;12.80;100.00;100531.38;4988240;30;20092;-68
2022/09/09 03:00:39;;;;;;;8.50;3.55;;;;;;;12.80;100.00;100531.38;4987874;30;20065;-69
2022/09/09 03:03:11;;;;;;;8.55;3.45;;;;;;;12.81;100.00;100535.72;4987532;30;20126;-68
2022/09/09 03:05:44;;;;;;;10.80;3.40;;;;;;;12.77;100.00;100527.94;4987672;30;20495;-69
2022/09/09 03:08:17;;;;;;;10.48;3.72;;;;;;;12.83;100.00;100528.66;4987624;30;20035;-69
2022/09/09 03:10:49;;;;;;;14.82;4.50;;;;;;;12.81;100.00;100535.72;4987712;30;20046;-68
2022/09/09 03:13:20;;;;;;;8.70;3.95;;;;;;;12.74;100.00;100529.78;4987479;30;20138;-71
2022/09/09 03:15:52;;;;;;;9.07;3.20;;;;;;;12.78;100.00;100531.41;4971278;30;20064;-68
2022/09/09 03:18:24;;;;;;;8.60;3.40;;;;;;;12.81;100.00;100536.56;4971674;30;20483;-69
2022/09/09 03:20:55;;;;;;;12.20;4.13;;;;;;;12.76;100.00;100541.91;4987877;30;20066;-69
2022/09/09 03:23:26;;;;;;;6.00;3.43;;;;;;;12.79;100.00;100545.38;4972058;30;20433;-69
2022/09/09 03:25:58;;;;;;;9.13;3.30;;;;;;;12.83;100.00;100549.59;4988034;30;20039;-69
2022/09/09 03:28:30;;;;;;;10.43;3.60;;;;;;;12.81;100.00;100546.16;4987636;30;20110;-69
2022/09/09 03:31:05;;;;;;;7.28;3.60;;;;;;;12.85;100.00;100542.59;4987775;30;20108;-70
2022/09/09 03:33:38;;;;;;;9.80;3.70;;;;;;;12.83;100.00;100544.38;4987529;30;20031;-69
2022/09/09 03:36:10;;;;;;;11.00;3.17;;;;;;;12.77;100.00;100535.78;4971379;29;20134;-68
2022/09/09 03:38:41;;;;;;;8.40;4.40;;;;;;;12.82;100.00;100542.66;4987722;30;20154;-68
2022/09/09 03:41:13;;;;;;;7.27;4.20;;;;;;;12.83;100.00;100539.13;4971549;30;20155;-70
2022/09/09 03:43:44;;;;;;;8.57;3.27;;;;;;;12.81;100.00;100540.94;4987589;30;20055;-70
2022/09/09 03:46:16;;;;;;;13.23;4.07;;;;;;;12.82;100.00;100542.66;4971508;30;20415;-69
2022/09/09 03:48:47;;;;;;;12.47;3.80;;;;;;;12.82;100.00;100533.06;4987140;30;20415;-68
2022/09/09 03:51:19;;;;;;;7.20;3.30;;;;;;;12.84;100.00;100539.09;4987290;30;20434;-68
2022/09/09 03:53:50;;;;;;;10.17;3.50;;;;;;;12.87;100.00;100538.19;4987212;30;20116;-69
2022/09/09 03:56:22;;;;;;;8.23;3.40;;;;;;;12.84;100.00;100541.72;4987372;30;20042;-69
2022/09/09 03:58:53;;;;;;;9.13;4.13;;;;;;;12.86;100.00;100534.69;4987284;30;20196;-69
2022/09/09 04:01:25;;;;;;;10.10;3.30;;;;;;;12.85;100.00;100532.97;4987245;30;20063;-69
2022/09/09 04:03:58;;;;;;;13.10;4.05;;;;;;;12.87;100.00;100543.41;4987303;30;20042;-69
2022/09/09 04:06:29;;;;;;;6.78;3.28;;;;;;;12.85;100.00;100527.75;4986880;30;20122;-69
2022/09/09 04:09:03;;;;;;;10.23;3.80;;;;;;;12.86;100.00;100531.22;4987002;30;20118;-69
2022/09/09 04:11:34;;;;;;;7.88;3.55;;;;;;;12.86;100.00;100529.44;4970717;30;20035;-68
2022/09/09 04:14:06;;;;;;;10.30;3.70;;;;;;;12.88;100.00;100521.56;4971026;30;20103;-69
2022/09/09 04:16:37;;;;;;;9.87;4.13;;;;;;;12.87;100.00;100528.56;4987168;30;20035;-69
2022/09/09 04:19:09;;;;;;;10.77;3.80;;;;;;;12.90;100.00;100522.41;4986713;30;20050;-68
2022/09/09 04:21:41;;;;;;;10.33;3.87;;;;;;;12.90;100.00;100525.88;4986725;30;20229;-69
2022/09/09 04:24:12;;;;;;;9.55;4.22;;;;;;;12.94;100.00;100517.03;4986862;30;20475;-68
2022/09/09 04:26:45;;;;;;;12.70;3.93;;;;;;;12.97;100.00;100518.69;4986911;30;20074;-69
2022/09/09 04:29:16;;;;;;;9.45;3.80;;;;;;;13.00;100.00;100520.38;4970374;30;20122;-68
2022/09/09 04:31:48;;;;;;;8.27;3.57;;;;;;;12.99;100.00;100519.50;4987240;30;20118;-69
2022/09/09 04:34:19;;;;;;;13.37;4.00;;;;;;;12.99;100.00;100516.91;4986660;30;20484;-68
2022/09/09 04:36:51;;;;;;;9.37;3.60;;;;;;;12.99;100.00;100519.50;4986610;30;20066;-68
2022/09/09 04:39:26;;;;;;;11.88;4.65;;;;;;;13.00;100.00;100515.16;4986749;30;20442;-69
2022/09/09 04:41:57;;;;;;;9.68;4.00;;;;;;;12.98;100.00;100512.59;4970109;30;20039;-68
2022/09/09 04:44:30;;;;;;;12.80;3.80;;;;;;;12.97;100.00;100507.38;4970330;30;20507;-78
2022/09/09 04:47:01;;;;;;;14.85;4.65;;;;;;;12.97;100.00;100515.25;4986566;30;20464;-77
2022/09/09 04:49:32;;;;;;;7.97;3.87;;;;;;;12.96;100.00;100509.16;4970173;30;20070;-77
2022/09/09 04:52:04;;;;;;;10.90;4.03;;;;;;;13.00;100.00;100512.53;4986294;30;20110;-77
2022/09/09 04:54:35;;;;;;;13.20;4.30;;;;;;;12.99;100.00;100511.66;4970643;30;20483;-78
2022/09/09 04:57:07;;;;;;;19.23;4.97;;;;;;;13.01;100.00;100499.41;4986457;30;20073;-79
2022/09/09 04:59:39;;;;;;;14.60;4.63;;;;;;;13.06;100.00;100504.53;4987041;30;20131;-79
2022/09/09 05:02:10;;;;;;;10.43;4.90;;;;;;;13.08;100.00;100500.09;4986592;30;20476;-79
2022/09/09 05:04:42;;;;;;;11.00;3.63;;;;;;;13.08;100.00;100506.19;4986096;30;20035;-79
2022/09/09 05:07:14;;;;;;;14.13;4.57;;;;;;;13.07;100.00;100507.09;4986121;30;20362;-78
2022/09/09 05:09:47;;;;;;;15.50;4.93;;;;;;;13.04;100.00;100507.19;4985955;30;20122;-78
2022/09/09 05:12:19;;;;;;;9.52;3.78;;;;;;;13.06;100.00;100505.38;4986096;30;20043;-78
2022/09/09 05:14:51;;;;;;;8.00;4.00;;;;;;;13.10;100.00;100509.59;4986059;30;20043;-76
2022/09/09 05:17:22;;;;;;;16.25;5.25;;;;;;;13.12;100.00;100504.34;4970048;30;20118;-78
2022/09/09 05:19:53;;;;;;;12.77;4.50;;;;;;;13.13;100.00;100506.06;4986485;30;20047;-80
2022/09/09 05:22:26;;;;;;;12.80;4.33;;;;;;;13.16;100.00;100508.59;4988966;30;20059;-77
2022/09/09 05:24:58;;;;;;;12.48;4.03;;;;;;;13.15;100.00;100499.00;4987003;30;20068;-74
2022/09/09 05:27:31;;;;;;;10.55;3.78;;;;;;;13.18;100.00;100498.09;4972489;30;20063;-77
2022/09/09 05:30:04;;;;;;;14.48;4.80;;;;;;;13.20;100.00;100499.78;4986486;30;20043;-77
2022/09/09 05:32:35;;;;;;;11.65;4.25;;;;;;;13.19;100.00;100495.44;4985737;30;20039;-80
2022/09/09 05:35:07;;;;;;;15.20;4.03;;;;;;;13.22;100.00;100492.72;4985539;30;20077;-77
2022/09/09 05:37:39;;;;;;;14.53;4.47;;;;;;;13.22;100.00;100492.72;4985718;30;20421;-77
2022/09/09 05:40:11;;;;;;;10.55;3.60;;;;;;;13.29;100.00;100501.25;4985441;30;20468;-77
2022/09/09 05:42:42;;;;;;;12.73;4.67;;;;;;;13.31;100.00;100502.06;4985710;30;20147;-78
2022/09/09 05:45:13;;;;;;;11.60;4.33;;;;;;;13.33;100.00;100502.94;4985489;30;20122;-77
2022/09/09 05:47:52;;;;;;;13.17;4.53;;;;;;;13.41;100.00;100513.16;4984869;30;20069;-80
2022/09/09 05:50:24;;;;;;;9.90;3.42;;;;;;;13.41;100.00;100519.28;4985163;30;20097;-79
2022/09/09 05:52:55;;;;;;;11.83;2.83;;;;;;;13.46;100.00;100517.38;4985124;30;20035;-78
2022/09/09 05:55:27;;;;;;;10.67;3.83;;;;;;;13.49;100.00;100516.41;4984830;30;20084;-80
2022/09/09 05:57:59;;;;;;;16.58;4.15;;;;;;;13.52;100.00;100521.56;4985382;30;20040;-79
2022/09/09 06:00:31;;;;;;;10.85;3.75;;;;;;;13.54;100.00;100522.41;4969967;30;20046;-78
2022/09/09 06:03:03;;;;;;;11.10;3.45;;;;;;;13.58;100.00;100517.91;4988660;30;20127;-80
2022/09/09 06:05:35;;;;;;;10.07;3.47;;;;;;;13.63;100.00;100519.47;4989280;30;20118;-80
2022/09/09 06:08:07;;;;;;;11.27;3.20;;;;;;;13.69;100.00;100510.59;4989324;30;20046;-78
2022/09/09 06:10:38;;;;;;;13.18;4.28;;;;;;;13.72;100.00;100518.38;4989150;30;20159;-80
2022/09/09 06:13:09;;;;;;;11.60;3.60;;;;;;;13.80;100.00;100512.91;4989003;30;20435;-77
2022/09/09 06:15:50;;;;;;;10.23;3.30;;;;;;;13.89;100.00;100520.44;4992445;30;20058;-80
2022/09/09 06:18:22;;;;;;;10.80;3.15;;;;;;;14.03;100.00;100528.75;4998677;30;20100;-79
2022/09/09 06:20:58;;;;;;;10.90;3.00;;;;;;;14.10;100.00;100505.81;4989998;30;20043;-78
2022/09/09 06:23:30;;;;;;;12.82;3.63;;;;;;;14.19;100.00;100518.63;4988766;30;20042;-78
2022/09/09 06:26:19;;;;;;;10.63;2.75;;;;;;;14.26;100.00;100526.31;4988570;30;20035;-81
2022/09/09 06:28:52;;;;;;;10.05;2.88;;;;;;;14.25;100.00;100508.84;4973090;30;20031;-82
2022/09/09 06:31:30;;;;;;;10.38;3.42;;;;;;;14.23;100.00;100519.38;4988479;30;20039;-80
2022/09/09 06:34:02;;;;;;;11.00;3.10;;;;;;;14.21;100.00;100519.44;4988504;30;20532;-78
2022/09/09 06:36:36;;;;;;;14.35;3.90;;;;;;;14.25;100.00;100521.97;4988394;30;20464;-79
2022/09/09 06:39:10;;;;;;;14.45;3.83;;;;;;;14.21;100.00;100524.69;4988575;30;20038;-81
2022/09/09 06:41:42;;;;;;;10.55;3.00;;;;;;;14.23;100.00;100512.41;4988727;30;20042;-81
2022/09/09 06:44:15;;;;;;;19.73;3.33;;;;;;;14.19;100.00;100512.56;4988507;30;20039;-80
2022/09/09 06:46:47;;;;;;;16.02;4.32;;;;;;;14.16;100.00;100500.38;4988403;30;20036;-79
2022/09/09 06:49:19;;;;;;;12.52;3.63;;;;;;;14.23;100.00;100509.78;4987801;30;20051;-80
2022/09/09 06:51:51;;;;;;;16.23;4.20;;;;;;;14.26;100.00;100502.72;4988216;30;20040;-79
2022/09/09 06:54:25;;;;;;;9.55;3.55;;;;;;;14.31;100.00;100504.28;4988216;30;20384;-80
2022/09/09 06:56:56;;;;;;;13.15;3.38;;;;;;;14.39;100.00;100506.63;4988371;30;20031;-81
2022/09/09 06:59:27;;;;;;;13.90;3.60;;;;;;;14.47;100.00;100507.25;4987930;30;20046;-80
2022/09/09 07:01:59;;;;;;;9.80;3.87;;;;;;;14.61;100.00;100511.22;4988130;30;20111;-81
2022/09/09 07:04:30;;;;;;;17.00;3.40;;;;;;;14.72;100.00;100517.81;4988305;30;20467;-80
2022/09/09 07:07:02;;;;;;;10.63;3.90;;;;;;;14.82;100.00;100510.47;4988016;30;20035;-80
2022/09/09 07:09:33;;;;;;;13.40;3.40;;;;;;;14.91;100.00;100523.28;4988099;30;20038;-79
2022/09/09 07:12:05;;;;;;;10.53;2.83;;;;;;;15.09;100.00;100518.28;4987551;29;20045;-82
2022/09/09 07:14:37;;;;;;;9.95;2.90;;;;;;;15.15;100.00;100512.81;4988071;30;20035;-81
2022/09/09 07:17:08;;;;;;;14.57;3.87;;;;;;;15.31;100.00;100516.59;4988390;30;20031;-81
2022/09/09 07:19:40;;;;;;;13.90;3.93;;;;;;;15.40;100.00;100527.66;4988216;30;20781;-80
2022/09/09 07:22:11;;;;;;;9.27;2.67;;;;;;;15.40;99.65;100519.78;4988040;30;20059;-82
2022/09/09 07:24:44;;;;;;;8.03;2.63;;;;;;;15.47;98.69;100516.88;4988267;30;20031;-81
2022/09/09 07:27:16;;;;;;;11.10;3.05;;;;;;;15.63;98.20;100521.53;4971906;30;20127;-78
2022/09/09 07:29:48;;;;;;;9.50;2.73;;;;;;;15.63;97.47;100513.66;4987821;30;20122;-80
2022/09/09 07:32:20;;;;;;;9.57;3.17;;;;;;;15.57;98.36;100513.88;4987758;30;20119;-81
2022/09/09 07:34:51;;;;;;;15.10;3.47;;;;;;;15.59;97.66;100514.72;4988359;30;20085;-78
2022/09/09 07:37:24;;;;;;;11.83;3.07;;;;;;;15.72;97.33;100518.56;4987936;30;20115;-80
2022/09/09 07:39:55;;;;;;;13.00;3.60;;;;;;;15.82;95.60;100532.25;4988210;30;20027;-83
2022/09/09 07:42:26;;;;;;;14.70;3.47;;;;;;;15.81;95.73;100527.91;4988046;30;20064;-79
2022/09/09 07:44:59;;;;;;;16.23;2.90;;;;;;;15.80;95.56;100523.56;4987584;30;20110;-80
2022/09/09 07:47:30;;;;;;;11.40;3.75;;;;;;;15.82;96.27;100519.09;4987948;30;20408;-80
2022/09/09 07:50:02;;;;;;;10.20;3.10;;;;;;;15.87;94.91;100525.03;4987323;30;20039;-79
2022/09/09 07:52:33;;;;;;;11.00;3.20;;;;;;;15.95;95.32;100515.06;4987885;30;20126;-81
2022/09/09 07:55:05;;;;;;;13.13;2.83;;;;;;;16.08;94.50;100522.47;4987641;30;20483;-81
2022/09/09 07:57:37;;;;;;;13.52;3.20;;;;;;;16.06;92.35;100514.66;4987692;30;20050;-82
2022/09/09 08:00:10;;;;;;;10.43;2.70;;;;;;;16.19;94.19;100513.22;4971512;30;20118;-82
2022/09/09 08:02:41;;;;;;;9.95;3.03;;;;;;;16.30;92.65;100507.53;4993860;30;20039;-81
2022/09/09 08:05:13;;;;;;;8.90;2.77;;;;;;;16.44;90.45;100504.34;5002407;30;20067;-80
2022/09/09 08:07:45;;;;;;;9.25;2.40;;;;;;;16.51;90.96;100513.69;4991091;30;20433;-81
2022/09/09 08:10:18;;;;;;;13.05;3.28;;;;;;;16.48;90.46;100510.34;4987472;30;20047;-82
2022/09/09 08:12:49;;;;;;;;;;;;;;;16.64;92.04;100516.66;4987593;30;20130;-79
2022/09/09 08:15:20;;;;;;;10.73;3.43;;;;;;;16.53;88.29;100518.88;4987225;30;20050;-81
2022/09/09 08:17:52;;;;;;;8.77;2.87;;;;;;;16.73;89.58;100518.06;4987001;30;20866;-80
2022/09/09 08:20:24;;;;;;;10.52;2.55;;;;;;;16.93;90.11;100525.13;4970684;30;20055;-81
2022/09/09 08:22:56;;;;;;;8.30;3.20;;;;;;;16.94;88.36;100524.22;4986613;29;20357;-79
2022/09/09 08:25:28;;;;;;;11.57;2.90;;;;;;;16.92;86.59;100528.66;4986649;30;20035;-82
2022/09/09 08:28:00;;;;;;;;;;;;;;;17.06;89.32;100521.03;4987695;30;20372;-81
2022/09/09 08:30:31;;;;;;;8.50;3.03;;;;;;;16.90;88.79;100517.34;4986667;30;19922;-82
2022/09/09 08:33:02;;;;;;;7.23;2.53;;;;;;;16.88;87.18;100522.69;4987281;30;20039;-82
2022/09/09 08:35:34;;;;;;;8.73;3.07;;;;;;;16.83;85.38;100526.41;4987023;30;20031;-80
2022/09/09 08:38:05;;;;;;;9.37;2.87;;;;;;;16.81;86.20;100531.75;4971118;30;20365;-80
2022/09/09 08:40:46;;;;;;;10.40;3.17;;;;;;;16.71;86.42;100530.41;4987138;30;20059;-82
2022/09/09 08:43:21;;;;;;;9.80;3.28;;;;;;;16.56;86.75;100532.75;4987285;30;20099;-80
2022/09/09 08:46:11;;;;;;;6.72;2.60;;;;;;;16.56;87.58;100532.75;4986720;30;20043;-80
2022/09/09 08:48:54;;;;;;;9.43;2.28;;;;;;;16.61;87.81;100537.00;4986552;30;20031;-79
2022/09/09 08:51:29;;;;;;;12.55;2.85;;;;;;;16.63;88.39;100532.50;4986770;30;20462;-81
2022/09/09 08:54:03;;;;;;;15.38;3.97;;;;;;;16.70;87.31;100539.25;4987242;30;20039;-81
2022/09/09 08:56:36;;;;;;;11.38;2.83;;;;;;;16.80;86.64;100540.56;4995049;30;20058;-81
2022/09/09 08:59:12;;;;;;;12.07;3.35;;;;;;;16.91;86.68;100542.78;4990401;30;20438;-80
2022/09/09 09:01:53;;;;;;;10.60;3.10;;;;;;;16.95;86.70;100544.34;4987930;30;20039;-78
2022/09/09 09:04:48;;;;;;;9.18;2.47;;;;;;;17.06;85.23;100552.63;4986462;30;20108;-81
2022/09/09 09:07:50;;;;;;;11.32;2.60;;;;;;;17.06;85.25;100549.13;4986516;30;20031;-79
2022/09/09 09:10:47;;;;;;;9.73;2.85;;;;;;;17.07;87.30;100558.75;4986311;30;20050;-81
2022/09/09 09:13:24;;;;;;;11.18;3.03;;;;;;;17.03;84.20;100558.03;4986330;30;20038;-82
2022/09/09 09:16:01;;;;;;;10.32;2.65;;;;;;;17.11;83.57;100561.19;4987048;30;20031;-80
2022/09/09 09:18:33;;;;;;;14.70;4.07;;;;;;;17.05;83.58;100560.59;4986657;30;20035;-81
2022/09/09 09:21:18;;;;;;;9.70;2.97;;;;;;;17.02;83.26;100564.22;4986045;30;20074;-78
2022/09/09 09:23:55;;;;;;;12.50;2.75;;;;;;;16.74;85.54;100568.00;4986816;30;20307;-80
2022/09/09 09:26:44;;;;;;;12.18;3.92;;;;;;;16.74;86.75;100565.38;4986305;30;20038;-79
2022/09/09 09:29:18;;;;;;;10.77;2.85;;;;;;;16.77;86.00;100570.47;4969991;30;20031;-79
2022/09/09 09:31:58;;;;;;;11.38;2.72;;;;;;;16.76;85.79;100565.31;4986787;30;20415;-78
2022/09/09 09:34:30;;;;;;;13.52;2.92;;;;;;;16.71;84.48;100569.88;4987082;29;20088;-76
2022/09/09 09:37:01;;;;;;;9.70;2.93;;;;;;;16.78;86.55;100558.19;4989515;30;20380;-78
2022/09/09 09:39:38;;;;;;;11.00;2.77;;;;;;;16.87;87.53;100559.59;4990091;30;20039;-78
2022/09/09 09:42:13;;;;;;;12.10;2.85;;;;;;;16.88;86.68;100563.97;4990310;30;20525;-79
2022/09/09 09:44:45;;;;;;;9.52;3.13;;;;;;;16.86;86.94;100556.13;4990956;30;20067;-81
2022/09/09 09:47:21;;;;;;;8.63;2.60;;;;;;;16.91;86.75;100559.41;4981002;30;20475;-78
2022/09/09 09:49:59;;;;;;;11.80;3.40;;;;;;;16.91;83.84;100555.94;5002053;30;20035;-81
2022/09/09 09:52:32;;;;;;;13.75;4.00;;;;;;;16.91;85.40;100554.16;4990529;30;20039;-80
2022/09/09 09:55:12;;;;;;;12.48;3.45;;;;;;;16.87;84.02;100562.25;4973647;30;20051;-79
2022/09/09 09:57:44;;;;;;;8.70;3.13;;;;;;;16.80;84.76;100553.72;4989434;30;20036;-80
2022/09/09 10:00:18;;;;;;;;;;;;;;;16.90;86.15;100559.47;4990214;30;20049;-82
2022/09/09 10:02:51;;;;;;;10.45;3.30;;;;;;;16.51;90.17;100547.03;4989423;30;20281;-81
2022/09/09 10:05:31;;;;;;;12.90;4.07;;;;;;;16.16;92.58;100554.59;4989491;30;20035;-82
2022/09/09 10:08:04;;;;;;;8.43;2.40;;;;;;;16.04;92.88;100563.81;4973614;30;20071;-82
2022/09/09 10:11:23;;;;;;;13.27;2.95;;;;;;;16.17;94.48;100557.16;4989797;30;20037;-82
2022/09/09 10:14:20;;;;;;;9.43;2.22;;;;;;;16.18;93.75;100558.00;4987674;30;20501;-83
2022/09/09 10:17:27;;;;;;;10.13;2.45;;;;;;;16.21;93.26;100558.75;4989082;30;20133;-78
2022/09/09 10:20:10;;;;;;;8.35;2.58;;;;;;;16.47;96.08;100563.88;4990024;30;20078;-78
2022/09/09 10:22:49;;;;;;;13.38;3.40;;;;;;;16.45;94.00;100568.34;4990112;30;20119;-77
2022/09/09 10:25:58;;;;;;;10.75;4.07;;;;;;;16.29;91.56;100571.56;4989560;30;20038;-78
2022/09/09 10:28:32;;;;;;;13.60;4.20;;;;;;;16.13;93.35;100565.22;4970808;30;20043;-82
2022/09/09 10:31:24;;;;;;;12.00;2.60;;;;;;;16.12;93.81;100574.03;4977028;30;20133;-83
2022/09/09 10:34:03;;;;;;;12.85;3.10;;;;;;;16.21;95.13;100579.81;4992080;30;20032;-81
2022/09/09 10:36:39;;;;;;;11.15;3.30;;;;;;;16.25;93.80;100570.00;4991350;30;20043;-81
2022/09/09 10:39:31;;;;;;;7.93;3.00;;;;;;;16.24;94.60;100570.91;4990528;30;20038;-78
2022/09/09 10:42:10;;;;;;;6.55;2.83;;;;;;;16.25;93.32;100577.06;4993177;30;20031;-81
2022/09/09 10:45:23;;;;;;;10.65;2.72;;;;;;;16.37;94.31;100568.66;4992171;30;20071;-77
2022/09/09 10:48:20;;;;;;;8.65;2.75;;;;;;;16.39;94.45;100574.72;4990630;30;20063;-82
2022/09/09 10:50:57;;;;;;;7.45;2.30;;;;;;;16.61;93.37;100571.19;4993762;30;20047;-82
2022/09/09 10:53:51;;;;;;;8.95;2.50;;;;;;;16.90;92.86;100583.16;4997533;30;20046;-79
2022/09/09 10:56:24;;;;;;;9.70;3.17;;;;;;;16.94;91.33;100577.72;4996918;30;20126;-78
2022/09/09 10:59:12;;;;;;;11.95;2.92;;;;;;;16.94;92.65;100566.34;4992050;30;20440;-81
2022/09/09 11:01:54;;;;;;;9.52;3.22;;;;;;;16.91;93.13;100575.22;4988617;30;20117;-82
2022/09/09 11:04:55;;;;;;;7.80;2.30;;;;;;;16.95;93.07;100563.63;4989185;30;20031;-82
2022/09/09 11:07:47;;;;;;;9.35;2.55;;;;;;;16.89;92.09;100571.78;4988448;30;20264;-78
2022/09/09 11:10:58;;;;;;;4.55;2.33;;;;;;;16.83;92.40;100574.66;4988677;30;20039;-83
2022/09/09 11:13:39;;;;;;;8.30;2.55;;;;;;;16.94;93.02;100568.97;4989290;30;20039;-81
2022/09/09 11:16:43;;;;;;;8.35;3.63;;;;;;;17.01;93.04;100578.31;4987928;30;20035;-82
2022/09/09 11:19:17;;;;;;;7.38;2.78;;;;;;;17.00;92.68;100567.84;4988586;30;20454;-81
2022/09/09 11:21:51;;;;;;;7.95;2.42;;;;;;;16.99;92.20;100581.94;4972122;30;20059;-77
2022/09/09 11:24:38;;;;;;;8.95;2.70;;;;;;;16.81;91.95;100567.72;4988762;30;20035;-82
2022/09/09 11:27:26;;;;;;;8.48;2.50;;;;;;;16.65;93.17;100570.16;4987633;30;20031;-81
2022/09/09 11:30:18;;;;;;;8.55;2.78;;;;;;;16.66;92.88;100559.56;4996694;30;20054;-79
2022/09/09 11:33:11;;;;;;;10.38;2.85;;;;;;;16.65;92.37;100570.16;4999352;30;20112;-79
2022/09/09 11:36:07;;;;;;;7.50;3.28;;;;;;;16.62;93.05;100557.97;4989665;30;20468;-81
2022/09/09 11:38:51;;;;;;;5.78;2.42;;;;;;;16.57;92.29;100563.44;4988237;30;20426;-81
2022/09/09 11:41:22;;;;;;;9.55;2.85;;;;;;;16.57;92.29;100571.31;4987249;30;20168;-78
2022/09/09 11:43:53;;;;;;;8.30;2.30;;;;;;;16.60;92.82;100554.56;4987389;30;20544;-80
2022/09/09 11:46:36;;;;;;;7.37;2.60;;;;;;;16.60;92.11;100565.09;4987499;30;20496;-80
2022/09/09 11:49:27;;;;;;;;;;;;;;;16.70;91.68;100561.16;4988162;30;20023;-82
2022/09/09 11:51:59;;;;;;;7.75;2.58;;;;;;;16.55;93.16;100560.00;4971482;30;19921;-81
2022/09/09 11:54:34;;;;;;;7.53;2.23;;;;;;;16.60;94.27;100562.47;4987621;30;20528;-80
2022/09/09 11:57:23;;;;;;;7.65;2.97;;;;;;;16.67;94.33;100561.28;4987190;29;20372;-80
2022/09/09 11:59:54;;;;;;;6.88;2.75;;;;;;;16.54;96.10;100566.19;4988083;30;20042;-81
2022/09/09 12:02:30;;;;;;;10.13;3.47;;;;;;;16.46;97.23;100570.06;4971605;30;20031;-81